Time;durP1;ratioP1;P1;durP2;ratioP2;P2;SDS_P1;SDS_P2;PMS_P1;PMS_P2;Temp;Humidity;BMP_temperature;BMP_pressure;BME280_temperature;BME280_humidity;BME280_pressure;Samples;Min_cycle;Max_cycle;Signal;HPM_P1;HPM_P2
2022/03/18 00:02:30;;;;;;;0.00;0.00;;;;;;;0.02;100.00;103857.47;10439314;28;20025;-70
2022/03/18 00:07:30;;;;;;;0.10;0.10;;;;;;;-0.18;100.00;103861.16;10425750;28;20030;-69
2022/03/18 00:12:30;;;;;;;0.10;0.10;;;;;;;-0.37;100.00;103870.09;10433001;28;20637;-69
2022/03/18 00:17:31;;;;;;;0.10;0.10;;;;;;;-0.50;100.00;103866.69;10423104;28;20028;-71
2022/03/18 00:22:31;;;;;;;0.10;0.10;;;;;;;-0.51;100.00;103871.06;10438073;28;20487;-69
2022/03/18 00:27:32;;;;;;;0.10;0.10;;;;;;;-0.55;100.00;103871.97;10425420;28;20464;-70
2022/03/18 00:32:33;;;;;;;0.00;0.00;;;;;;;-0.67;100.00;103874.66;10448542;22;20045;-67
2022/03/18 00:37:34;;;;;;;0.10;0.10;;;;;;;-0.85;100.00;103891.38;10473181;28;20033;-67
2022/03/18 00:42:35;;;;;;;0.10;0.10;;;;;;;-0.90;100.00;103885.34;10473506;28;20029;-67
2022/03/18 00:52:54;;;;;;;0.10;0.10;;;;;;;-0.70;100.00;103887.78;10460385;28;20112;-67
2022/03/18 00:57:55;;;;;;;0.10;0.10;;;;;;;-0.48;100.00;103888.50;10469974;28;20017;-67
2022/03/18 01:02:55;;;;;;;0.00;0.00;;;;;;;-0.30;100.00;103888.34;10437576;28;20044;-67
2022/03/18 01:07:56;;;;;;;0.10;0.10;;;;;;;-0.22;100.00;103901.38;10470302;28;20467;-67
2022/03/18 01:12:57;;;;;;;0.10;0.10;;;;;;;-0.20;100.00;103899.63;10458505;28;20474;-67
2022/03/18 01:17:57;;;;;;;0.10;0.10;;;;;;;-0.15;100.00;103910.03;10471381;28;20700;-67
2022/03/18 01:22:58;;;;;;;0.10;0.10;;;;;;;-0.08;100.00;103911.72;10454998;28;20537;-67
2022/03/18 01:27:58;;;;;;;0.10;0.10;;;;;;;0.02;100.00;103916.00;10476793;28;20040;-67
2022/03/18 01:33:00;;;;;;;0.10;0.10;;;;;;;0.06;100.00;103919.44;10474236;28;20033;-67
2022/03/18 01:38:00;;;;;;;0.10;0.10;;;;;;;-0.02;100.00;103924.78;10478611;28;20016;-67
2022/03/18 01:43:00;;;;;;;0.10;0.10;;;;;;;-0.09;100.00;103917.84;10469951;28;20029;-67
2022/03/18 01:48:02;;;;;;;0.10;0.10;;;;;;;-0.14;100.00;103928.38;10487432;28;20108;-67
2022/03/18 01:53:02;;;;;;;0.20;0.20;;;;;;;-0.19;100.00;103924.94;10466462;28;20391;-67
2022/03/18 01:58:03;;;;;;;0.10;0.10;;;;;;;-0.20;100.00;103941.53;10486911;28;20017;-67
2022/03/18 02:03:04;;;;;;;0.10;0.10;;;;;;;-0.21;100.00;103938.91;10467150;28;20017;-67
2022/03/18 02:08:07;;;;;;;0.10;0.10;;;;;;;-0.19;100.00;103950.25;10471474;28;20691;-67
2022/03/18 02:13:08;;;;;;;0.10;0.10;;;;;;;-0.21;100.00;103958.13;10469592;28;20719;-67
2022/03/18 02:18:08;;;;;;;0.00;0.00;;;;;;;-0.29;100.00;103952.06;10467452;28;20017;-67
2022/03/18 02:23:08;;;;;;;0.00;0.00;;;;;;;-0.57;100.00;103956.66;10473799;28;20020;-67
2022/03/18 02:28:09;;;;;;;0.10;0.10;;;;;;;-0.78;100.00;103952.44;10475741;28;20365;-67
2022/03/18 02:33:10;;;;;;;0.10;0.10;;;;;;;-0.89;100.00;103954.25;10468654;28;20274;-67
2022/03/18 02:38:10;;;;;;;0.03;0.03;;;;;;;-0.97;100.00;103951.66;10475899;28;20071;-67
2022/03/18 02:43:10;;;;;;;0.10;0.10;;;;;;;-0.95;100.00;103963.00;10474179;28;20035;-67
2022/03/18 02:48:10;;;;;;;0.00;0.00;;;;;;;-1.03;100.00;103955.16;10468428;28;20281;-67
2022/03/18 02:53:11;;;;;;;0.10;0.10;;;;;;;-1.18;100.00;103955.25;10490233;28;20020;-67
2022/03/18 02:58:11;;;;;;;0.10;0.10;;;;;;;-1.32;100.00;103955.28;10458245;28;20020;-67
2022/03/18 03:03:11;;;;;;;0.13;0.13;;;;;;;-1.41;100.00;103957.94;10487547;28;20020;-67
2022/03/18 03:08:12;;;;;;;0.20;0.20;;;;;;;-1.49;100.00;103964.94;10471627;28;20309;-67
2022/03/18 03:13:13;;;;;;;0.00;0.00;;;;;;;-1.56;100.00;103966.72;10486883;28;20108;-67
2022/03/18 03:18:13;;;;;;;0.10;0.10;;;;;;;-1.65;100.00;103977.19;10467326;28;20017;-67
2022/03/18 03:23:14;;;;;;;0.20;0.20;;;;;;;-1.72;100.00;103975.44;10453333;28;20365;-67
2022/03/18 03:28:14;;;;;;;0.08;0.08;;;;;;;-1.77;100.00;103985.91;10456177;28;20017;-67
2022/03/18 03:33:15;;;;;;;0.20;0.20;;;;;;;-1.78;100.00;103992.00;10469221;28;20434;-66
2022/03/18 03:38:15;;;;;;;0.20;0.20;;;;;;;-1.92;100.00;103996.38;10467854;28;20082;-67
2022/03/18 03:43:16;;;;;;;0.10;0.10;;;;;;;-1.97;100.00;103998.13;10449791;28;20028;-67
2022/03/18 03:48:16;;;;;;;0.10;0.10;;;;;;;-2.01;100.00;104012.91;10491537;28;20408;-67
2022/03/18 03:53:16;;;;;;;0.10;0.10;;;;;;;-2.05;100.00;104016.41;10463910;28;20028;-67
2022/03/18 03:58:17;;;;;;;0.10;0.10;;;;;;;-2.00;100.00;104006.84;10450002;28;20255;-67
2022/03/18 04:03:17;;;;;;;0.10;0.10;;;;;;;-1.85;100.00;104008.56;10479736;28;20032;-67
2022/03/18 04:08:17;;;;;;;0.10;0.10;;;;;;;-1.79;100.00;104026.84;10470629;28;20062;-67
2022/03/18 04:13:18;;;;;;;0.13;0.13;;;;;;;-1.77;100.00;104026.88;10457494;28;20653;-67
2022/03/18 04:18:18;;;;;;;0.10;0.10;;;;;;;-1.73;100.00;104034.69;10474613;28;20522;-67
2022/03/18 04:23:18;;;;;;;0.05;0.05;;;;;;;-1.63;100.00;104039.06;10486771;28;20029;-67
2022/03/18 04:28:19;;;;;;;0.00;0.00;;;;;;;-1.35;100.00;104052.06;10474646;28;20047;-67
2022/03/18 04:33:19;;;;;;;0.13;0.13;;;;;;;-1.25;100.00;104066.88;10494562;28;20029;-67
2022/03/18 04:38:19;;;;;;;0.00;0.00;;;;;;;-1.23;100.00;104064.25;10458748;28;20263;-67
2022/03/18 04:43:20;;;;;;;0.10;0.10;;;;;;;-1.27;100.00;104078.22;10441357;28;20021;-67
2022/03/18 04:48:21;;;;;;;0.10;0.10;;;;;;;-1.24;100.00;104092.16;10464028;28;20278;-67
2022/03/18 04:53:21;;;;;;;0.13;0.13;;;;;;;-1.18;100.00;104092.13;10477551;28;20081;-67
2022/03/18 04:58:21;;;;;;;0.20;0.20;;;;;;;-1.23;100.00;104100.88;10489985;28;20020;-67
2022/03/18 05:03:22;;;;;;;0.20;0.20;;;;;;;-1.28;100.00;104116.59;10458550;28;20024;-67
2022/03/18 05:08:22;;;;;;;0.10;0.10;;;;;;;-1.27;100.00;104122.69;10467921;28;20572;-67
2022/03/18 05:13:22;;;;;;;0.20;0.20;;;;;;;-1.19;100.00;104139.25;10439511;28;20032;-67
2022/03/18 05:18:23;;;;;;;0.15;0.15;;;;;;;-1.10;100.00;104139.22;10440238;28;20456;-67
2022/03/18 05:23:23;;;;;;;0.10;0.10;;;;;;;-1.08;100.00;104150.53;10463027;28;20468;-67
2022/03/18 05:28:24;;;;;;;0.08;0.08;;;;;;;-0.98;100.00;104162.75;10463746;28;20275;-67
2022/03/18 05:33:26;;;;;;;0.20;0.20;;;;;;;-0.94;100.00;104174.06;10457379;28;20511;-67
2022/03/18 05:38:26;;;;;;;0.10;0.10;;;;;;;-0.83;100.00;104174.94;10470488;28;20043;-67
2022/03/18 05:43:26;;;;;;;0.13;0.13;;;;;;;-0.46;100.00;104182.69;10457588;28;20395;-67
2022/03/18 05:48:27;;;;;;;0.20;0.20;;;;;;;-0.09;100.00;104190.38;10464541;28;20387;-67
2022/03/18 05:53:28;;;;;;;0.10;0.10;;;;;;;-0.16;100.00;104199.16;10474731;28;20767;-67
2022/03/18 05:58:29;;;;;;;0.10;0.10;;;;;;;-0.26;100.00;104196.56;10475350;28;20020;-67
2022/03/18 06:03:30;;;;;;;0.08;0.08;;;;;;;-0.20;100.00;104205.25;10460742;28;20036;-67
2022/03/18 06:13:49;;;;;;;0.10;0.10;;;;;;;-0.04;100.00;104199.94;10464786;28;20036;-67
2022/03/18 06:18:50;;;;;;;0.10;0.10;;;;;;;0.34;100.00;104214.59;10465843;28;20411;-67
2022/03/18 06:23:50;;;;;;;0.03;0.03;;;;;;;1.48;100.00;104217.06;10470757;28;20024;-67
2022/03/18 06:28:51;;;;;;;0.00;0.00;;;;;;;2.61;100.00;104221.72;10457731;28;20021;-67
2022/03/18 06:33:51;;;;;;;0.00;0.00;;;;;;;2.30;100.00;104221.28;10463865;22;20063;-70
2022/03/18 06:38:52;;;;;;;0.00;0.00;;;;;;;1.77;100.00;104224.63;10458174;28;20032;-70
2022/03/18 06:43:52;;;;;;;0.03;0.03;;;;;;;1.46;100.00;104226.75;10470591;28;20059;-70
2022/03/18 06:48:53;;;;;;;0.00;0.00;;;;;;;1.35;100.00;104226.00;10475294;28;20356;-70
2022/03/18 06:53:54;;;;;;;0.00;0.00;;;;;;;1.79;100.00;104241.25;10469917;28;20023;-69
2022/03/18 06:58:54;;;;;;;0.00;0.00;;;;;;;2.19;100.00;104264.41;10462434;28;20062;-72
2022/03/18 07:03:54;;;;;;;0.00;0.00;;;;;;;2.39;100.00;104265.91;10470888;28;20021;-72
2022/03/18 07:08:55;;;;;;;0.00;0.00;;;;;;;2.48;100.00;104274.53;10460890;28;20019;-70
2022/03/18 07:13:55;;;;;;;0.00;0.00;;;;;;;2.49;100.00;104278.03;10461246;28;20343;-70
2022/03/18 07:18:55;;;;;;;0.00;0.00;;;;;;;2.56;100.00;104276.16;10466617;28;20476;-69
2022/03/18 07:23:56;;;;;;;0.00;0.00;;;;;;;2.64;100.00;104283.06;10466947;28;20047;-69
2022/03/18 07:28:56;;;;;;;0.00;0.00;;;;;;;2.71;100.00;104282.09;10465573;28;20071;-69
2022/03/18 07:33:57;;;;;;;0.00;0.00;;;;;;;2.77;100.00;104293.44;10451310;28;20032;-70
2022/03/18 07:38:57;;;;;;;0.00;0.00;;;;;;;2.79;100.00;104291.63;10457149;28;20017;-69
2022/03/18 07:43:57;;;;;;;0.00;0.00;;;;;;;3.78;100.00;104296.91;10456533;28;20017;-70
2022/03/18 07:48:57;;;;;;;0.00;0.00;;;;;;;5.62;100.00;104303.22;10480308;28;20070;-69
2022/03/18 07:53:58;;;;;;;0.00;0.00;;;;;;;7.18;100.00;104309.03;10473783;28;20502;-70
2022/03/18 07:59:00;;;;;;;0.10;0.10;;;;;;;6.98;100.00;104315.03;10483797;28;20472;-70
2022/03/18 08:04:00;;;;;;;0.10;0.10;;;;;;;8.30;100.00;104317.44;10465284;28;20017;-70
2022/03/18 08:09:00;;;;;;;0.10;0.10;;;;;;;9.45;100.00;104329.59;10467664;28;20388;-70
2022/03/18 08:14:00;;;;;;;0.10;0.10;;;;;;;10.14;94.55;104355.78;10472593;28;20024;-70
2022/03/18 08:19:01;;;;;;;0.10;0.10;;;;;;;10.44;93.28;104355.34;10456359;28;20039;-70
2022/03/18 08:24:02;;;;;;;0.10;0.10;;;;;;;10.42;91.08;104371.41;10488107;28;20024;-71
2022/03/18 08:29:07;;;;;;;0.10;0.10;;;;;;;10.74;90.50;104371.69;10490856;28;20087;-70
2022/03/18 08:34:08;;;;;;;0.10;0.10;;;;;;;10.97;90.09;104365.25;10457795;28;20031;-70
2022/03/18 08:39:08;;;;;;;0.10;0.10;;;;;;;11.35;89.89;104366.94;10477440;28;20019;-70
2022/03/18 08:44:08;;;;;;;0.10;0.10;;;;;;;11.68;90.99;104373.19;10480062;28;20475;-70
2022/03/18 08:49:08;;;;;;;0.10;0.10;;;;;;;11.90;85.30;104374.81;10486783;28;20074;-70
2022/03/18 08:54:09;;;;;;;0.10;0.10;;;;;;;12.00;85.97;104395.59;10479647;28;20108;-70
2022/03/18 08:59:09;;;;;;;0.08;0.08;;;;;;;12.10;86.72;104411.13;10485800;28;20024;-70
2022/03/18 09:04:09;;;;;;;0.10;0.10;;;;;;;12.31;86.77;104407.31;10455631;28;20021;-70
2022/03/18 09:09:10;;;;;;;0.10;0.10;;;;;;;12.58;88.33;104418.28;10473673;28;20013;-69
2022/03/18 09:14:11;;;;;;;0.10;0.10;;;;;;;12.66;85.23;104428.59;10453106;28;20040;-69
2022/03/18 09:19:12;;;;;;;0.10;0.10;;;;;;;12.56;83.50;104432.69;10467891;28;20391;-69
2022/03/18 09:24:12;;;;;;;0.10;0.10;;;;;;;12.35;84.84;104429.38;10488587;28;20016;-70
2022/03/18 09:29:12;;;;;;;0.10;0.10;;;;;;;12.40;87.90;104435.34;10482538;28;20103;-69
2022/03/18 09:34:12;;;;;;;0.10;0.10;;;;;;;12.35;85.72;104440.94;10494482;28;20475;-69
2022/03/18 09:39:13;;;;;;;0.10;0.10;;;;;;;12.23;85.96;104437.13;10467709;28;20028;-69
2022/03/18 09:44:14;;;;;;;0.10;0.10;;;;;;;12.14;88.21;104436.75;10454215;28;20048;-69
2022/03/18 09:49:17;;;;;;;0.10;0.10;;;;;;;11.94;87.12;104448.47;10488893;28;20023;-69
2022/03/18 09:54:17;;;;;;;0.08;0.08;;;;;;;11.95;89.76;104445.72;10484063;28;20033;-69
2022/03/18 09:59:19;;;;;;;0.10;0.10;;;;;;;12.10;89.41;104449.44;10462259;28;20062;-69
2022/03/18 10:04:20;;;;;;;0.00;0.00;;;;;;;12.07;89.11;104452.25;10439075;28;20104;-69
2022/03/18 10:09:27;;;;;;;0.10;0.10;;;;;;;11.53;89.22;104456.78;10435555;28;20017;-70
2022/03/18 10:14:28;;;;;;;0.10;0.10;;;;;;;11.55;92.22;104461.09;10422161;28;20051;-70
2022/03/18 10:19:28;;;;;;;0.08;0.08;;;;;;;11.40;92.45;104469.84;10442999;28;20024;-70
2022/03/18 10:24:31;;;;;;;0.10;0.10;;;;;;;11.50;93.53;104475.63;10447709;28;20016;-70
2022/03/18 10:29:43;;;;;;;0.10;0.10;;;;;;;11.58;95.14;104478.78;10446113;28;20495;-71
2022/03/18 10:40:04;;;;;;;0.10;0.10;;;;;;;11.59;95.92;104477.81;10450482;28;20032;-70
2022/03/18 10:45:06;;;;;;;0.00;0.00;;;;;;;11.66;94.93;104479.22;10443150;28;20485;-70
2022/03/18 10:50:10;;;;;;;0.10;0.10;;;;;;;11.57;97.45;104475.22;10441898;28;20028;-70
2022/03/18 10:55:25;;;;;;;0.05;0.05;;;;;;;11.69;97.67;104471.09;10445543;28;20020;-70
2022/03/18 11:00:29;;;;;;;0.10;0.10;;;;;;;11.73;98.23;104471.78;10447966;28;20475;-70
2022/03/18 11:05:31;;;;;;;0.00;0.00;;;;;;;11.70;99.20;104466.59;10442763;28;20025;-70
2022/03/18 11:15:54;;;;;;;0.10;0.10;;;;;;;11.77;97.96;104476.03;10448623;28;20029;-70
2022/03/18 11:20:56;;;;;;;0.10;0.10;;;;;;;11.70;95.80;104488.84;10489409;28;20027;-70
2022/03/18 11:26:00;;;;;;;0.10;0.10;;;;;;;11.83;96.56;104490.88;10488941;28;20052;-71
2022/03/18 11:31:09;;;;;;;0.00;0.00;;;;;;;11.98;98.00;104493.69;10432551;28;20029;-71
2022/03/18 11:36:11;;;;;;;0.05;0.05;;;;;;;11.99;95.29;104484.72;10466318;28;20017;-71
2022/03/18 11:41:11;;;;;;;0.10;0.10;;;;;;;12.03;95.42;104501.44;10449321;28;20017;-71
2022/03/18 11:46:12;;;;;;;0.00;0.00;;;;;;;12.19;94.07;104494.38;10478052;28;20016;-71
2022/03/18 11:51:22;;;;;;;0.03;0.03;;;;;;;12.29;95.53;104494.75;10478258;28;20032;-71
2022/03/18 11:56:41;;;;;;;0.10;0.10;;;;;;;12.23;96.43;104492.38;10433127;28;20559;-71
2022/03/18 12:01:42;;;;;;;0.00;0.00;;;;;;;12.23;96.71;104500.41;10483930;28;20063;-71
2022/03/18 12:07:30;;;;;;;0.10;0.10;;;;;;;12.28;97.09;104514.41;10487389;28;20480;-71
2022/03/18 12:12:41;;;;;;;0.10;0.10;;;;;;;12.27;98.15;104501.97;10489836;28;20278;-71
2022/03/18 12:17:46;;;;;;;0.10;0.10;;;;;;;12.10;96.27;104508.22;10485392;28;20025;-71
2022/03/18 12:22:49;;;;;;;0.10;0.10;;;;;;;11.93;100.00;104501.06;10468758;28;20027;-72
2022/03/18 12:27:52;;;;;;;0.10;0.10;;;;;;;12.13;97.67;104508.06;10447718;28;20021;-72
2022/03/18 12:33:01;;;;;;;0.10;0.10;;;;;;;12.09;95.64;104505.59;10467906;22;20450;-67
2022/03/18 12:38:10;;;;;;;0.10;0.10;;;;;;;12.06;97.13;104503.09;10413552;28;20086;-68
2022/03/18 12:43:15;;;;;;;0.10;0.10;;;;;;;12.21;100.00;104496.94;10454761;28;20483;-67
2022/03/18 12:48:21;;;;;;;0.00;0.00;;;;;;;12.40;99.04;104487.00;10437055;28;20021;-67
2022/03/18 12:53:26;;;;;;;0.10;0.10;;;;;;;12.55;97.88;104479.97;10454698;28;20033;-68
2022/03/18 12:58:35;;;;;;;0.10;0.10;;;;;;;12.54;98.43;104478.25;10412064;28;20387;-68
2022/03/18 13:03:35;;;;;;;0.10;0.10;;;;;;;12.48;98.83;104483.94;10412829;28;20033;-67
2022/03/18 13:08:36;;;;;;;0.10;0.10;;;;;;;12.61;96.47;104502.84;10411050;28;20067;-68
2022/03/18 13:13:46;;;;;;;0.00;0.00;;;;;;;12.57;95.63;104495.97;10414767;28;20087;-68
2022/03/18 13:18:56;;;;;;;0.10;0.10;;;;;;;12.52;97.57;104501.53;10415237;28;20022;-68
2022/03/18 13:23:56;;;;;;;0.00;0.00;;;;;;;12.58;96.10;104509.22;10396473;28;20087;-68
2022/03/18 13:28:57;;;;;;;0.10;0.10;;;;;;;12.66;90.96;104503.47;10393085;28;20108;-68
2022/03/18 13:33:58;;;;;;;0.10;0.10;;;;;;;12.76;94.27;104506.50;10395683;28;20033;-68
2022/03/18 13:39:01;;;;;;;0.00;0.00;;;;;;;12.77;93.73;104502.88;10413905;28;20024;-68
2022/03/18 13:44:01;;;;;;;0.05;0.05;;;;;;;12.76;96.38;104506.50;10413097;28;20253;-68
2022/03/18 13:49:10;;;;;;;0.10;0.10;;;;;;;12.72;92.67;104489.75;10413879;28;20021;-68
2022/03/18 13:54:13;;;;;;;0.10;0.10;;;;;;;12.60;92.87;104495.78;10412755;28;20032;-68
2022/03/18 13:59:20;;;;;;;0.10;0.10;;;;;;;12.67;90.44;104506.06;10411901;28;20025;-68
2022/03/18 14:04:21;;;;;;;0.10;0.10;;;;;;;12.80;91.67;104482.19;10410771;28;20100;-68
2022/03/18 14:09:22;;;;;;;0.10;0.10;;;;;;;12.90;90.70;104475.34;10406029;28;20135;-68
2022/03/18 14:14:28;;;;;;;0.10;0.10;;;;;;;12.91;91.29;104468.19;10405308;28;20028;-69
2022/03/18 14:19:56;;;;;;;0.10;0.10;;;;;;;12.87;91.14;104477.34;10411000;28;20020;-68
2022/03/18 14:24:58;;;;;;;0.10;0.10;;;;;;;12.87;92.28;104482.69;10410933;28;20522;-69
2022/03/18 14:30:17;;;;;;;0.10;0.10;;;;;;;12.80;94.14;104478.63;10427913;28;20519;-68
2022/03/18 14:35:18;;;;;;;0.10;0.10;;;;;;;12.84;93.44;104474.84;10400443;28;20022;-69
2022/03/18 14:40:21;;;;;;;0.10;0.10;;;;;;;12.84;94.64;104481.06;10404756;28;20025;-68
2022/03/18 14:45:21;;;;;;;0.10;0.10;;;;;;;12.82;94.35;104490.09;10410936;28;20033;-69
2022/03/18 14:50:21;;;;;;;0.10;0.10;;;;;;;12.65;93.90;104483.91;10413592;28;20324;-69
2022/03/18 15:00:41;;;;;;;0.10;0.10;;;;;;;12.48;96.90;104480.38;10407879;28;20034;-69
2022/03/18 15:05:45;;;;;;;0.10;0.10;;;;;;;12.44;98.09;104487.72;10408658;28;20025;-69
2022/03/18 15:10:46;;;;;;;0.10;0.10;;;;;;;12.38;98.52;104480.03;10405149;28;20065;-69
2022/03/18 15:15:47;;;;;;;0.10;0.10;;;;;;;12.33;99.06;104487.41;10407109;28;20025;-69
2022/03/18 15:20:49;;;;;;;0.13;0.13;;;;;;;12.30;100.00;104488.44;10410916;28;20025;-68
2022/03/18 15:25:51;;;;;;;0.10;0.10;;;;;;;12.27;99.95;104483.25;10409512;28;20556;-68
2022/03/18 15:30:51;;;;;;;0.10;0.10;;;;;;;12.17;100.00;104490.91;10408661;28;20379;-68
2022/03/18 15:35:52;;;;;;;0.10;0.10;;;;;;;12.12;100.00;104494.75;10409006;28;20026;-68
2022/03/18 15:40:53;;;;;;;0.10;0.10;;;;;;;12.01;100.00;104503.31;10409923;28;20068;-69
2022/03/18 15:45:53;;;;;;;0.10;0.10;;;;;;;11.91;100.00;104499.41;10409343;28;20033;-68
2022/03/18 15:50:57;;;;;;;0.00;0.00;;;;;;;11.86;100.00;104509.44;10409413;28;20511;-68
2022/03/18 15:55:59;;;;;;;0.10;0.10;;;;;;;11.79;100.00;104506.19;10409155;28;20387;-68
2022/03/18 16:00:59;;;;;;;0.10;0.10;;;;;;;11.75;100.00;104515.28;10390192;28;20014;-69
2022/03/18 16:06:00;;;;;;;0.10;0.10;;;;;;;11.71;100.00;104505.72;10394287;28;20021;-68
2022/03/18 16:11:00;;;;;;;0.00;0.00;;;;;;;11.64;100.00;104507.84;10400309;28;20151;-68
2022/03/18 16:16:02;;;;;;;0.10;0.10;;;;;;;11.53;100.00;104515.50;10416917;28;20033;-68
2022/03/18 16:21:05;;;;;;;0.05;0.05;;;;;;;11.42;100.00;104517.84;10417691;28;20651;-69
2022/03/18 16:26:06;;;;;;;0.10;0.10;;;;;;;11.28;100.00;104518.50;10416188;28;20115;-69
2022/03/18 16:31:06;;;;;;;0.10;0.10;;;;;;;11.16;100.00;104524.44;10415633;28;20103;-69
2022/03/18 16:36:07;;;;;;;0.10;0.10;;;;;;;11.02;100.00;104511.72;10415725;28;20529;-68
2022/03/18 16:41:08;;;;;;;0.10;0.10;;;;;;;10.87;100.00;104530.19;10416990;28;20025;-68
2022/03/18 16:51:27;;;;;;;0.00;0.00;;;;;;;10.56;100.00;104541.38;10415907;28;20723;-69
2022/03/18 16:56:27;;;;;;;0.10;0.10;;;;;;;10.40;100.00;104549.19;10415352;28;20026;-69
2022/03/18 17:01:47;;;;;;;0.10;0.10;;;;;;;10.20;100.00;104539.34;10414055;28;20026;-68
2022/03/18 17:06:50;;;;;;;0.10;0.10;;;;;;;10.00;100.00;104544.66;10400570;28;20500;-68
2022/03/18 17:11:51;;;;;;;0.10;0.10;;;;;;;9.88;100.00;104561.16;10414586;28;20033;-68
2022/03/18 17:16:51;;;;;;;0.10;0.10;;;;;;;9.73;100.00;104562.66;10414069;28;20021;-69
2022/03/18 17:21:52;;;;;;;0.00;0.00;;;;;;;9.57;100.00;104567.75;10414466;28;20033;-69
2022/03/18 17:26:52;;;;;;;0.10;0.10;;;;;;;9.47;100.00;104580.53;10414377;28;20030;-68
2022/03/18 17:31:53;;;;;;;0.10;0.10;;;;;;;9.35;100.00;104590.78;10394805;28;20502;-68
2022/03/18 17:36:54;;;;;;;0.10;0.10;;;;;;;9.16;100.00;104595.94;10396225;28;20272;-69
2022/03/18 17:41:54;;;;;;;0.00;0.00;;;;;;;9.00;100.00;104596.50;10413588;28;20052;-69
2022/03/18 17:46:55;;;;;;;0.10;0.10;;;;;;;8.79;100.00;104605.28;10413647;28;20282;-69
2022/03/18 17:51:56;;;;;;;0.10;0.10;;;;;;;8.55;100.00;104599.91;10395265;28;20032;-69
2022/03/18 17:56:56;;;;;;;0.00;0.00;;;;;;;8.34;100.00;104605.91;10413409;28;20021;-68
2022/03/18 18:01:56;;;;;;;0.08;0.08;;;;;;;8.14;100.00;104610.13;10411979;28;20044;-68
2022/03/18 18:06:57;;;;;;;0.00;0.00;;;;;;;7.99;100.00;104626.53;10412852;28;20460;-69
2022/03/18 18:11:57;;;;;;;0.10;0.10;;;;;;;7.93;100.00;104648.84;10394352;28;20519;-69
2022/03/18 18:16:57;;;;;;;0.10;0.10;;;;;;;7.93;100.00;104653.28;10412780;28;20091;-68
2022/03/18 18:21:58;;;;;;;0.00;0.00;;;;;;;7.85;100.00;104660.63;10394260;28;20025;-68
2022/03/18 18:26:59;;;;;;;0.10;0.10;;;;;;;7.65;100.00;104663.88;10412111;28;20455;-68
2022/03/18 18:31:59;;;;;;;0.10;0.10;;;;;;;7.47;100.00;104681.22;10410792;28;20013;-68
2022/03/18 18:37:00;;;;;;;0.00;0.00;;;;;;;7.31;100.00;104693.19;10411503;28;20076;-68
2022/03/18 18:42:04;;;;;;;0.10;0.10;;;;;;;7.20;100.00;104685.53;10474149;23;20045;-71
2022/03/18 18:47:05;;;;;;;0.00;0.00;;;;;;;7.04;100.00;104701.00;10476164;28;20111;-72
2022/03/18 18:52:05;;;;;;;0.00;0.00;;;;;;;6.82;100.00;104699.81;10493807;28;20111;-72
2022/03/18 18:57:07;;;;;;;0.00;0.00;;;;;;;6.62;100.00;104711.78;10493754;28;20091;-72
2022/03/18 19:02:07;;;;;;;0.00;0.00;;;;;;;6.49;100.00;104711.22;10493681;28;20028;-71
2022/03/18 19:07:07;;;;;;;0.00;0.00;;;;;;;6.45;100.00;104719.28;10475201;28;20029;-71
2022/03/18 19:12:08;;;;;;;0.00;0.00;;;;;;;6.30;100.00;104716.06;10498936;28;20073;-71
2022/03/18 19:17:10;;;;;;;0.00;0.00;;;;;;;6.15;100.00;104716.44;10475949;28;20042;-72
2022/03/18 19:22:11;;;;;;;0.00;0.00;;;;;;;6.04;100.00;104726.41;10475132;28;20028;-71
2022/03/18 19:27:11;;;;;;;0.00;0.00;;;;;;;5.87;100.00;104727.59;10492861;28;20028;-72
2022/03/18 19:32:29;;;;;;;0.00;0.00;;;;;;;5.81;100.00;104725.09;10492662;28;20032;-72
2022/03/18 19:37:31;;;;;;;0.00;0.00;;;;;;;5.69;100.00;104746.50;10492552;28;20100;-71
2022/03/18 19:42:31;;;;;;;0.00;0.00;;;;;;;5.57;100.00;104744.13;10491067;28;20423;-72
2022/03/18 19:47:32;;;;;;;0.00;0.00;;;;;;;5.49;100.00;104746.91;10492407;28;20020;-72
2022/03/18 19:52:33;;;;;;;0.00;0.00;;;;;;;5.62;100.00;104758.13;10474083;28;20471;-72
2022/03/18 20:02:52;;;;;;;0.00;0.00;;;;;;;5.73;100.00;104777.31;10492523;28;20333;-72
2022/03/18 20:07:52;;;;;;;0.00;0.00;;;;;;;5.62;100.00;104774.00;10493009;28;20107;-71
2022/03/18 20:12:53;;;;;;;0.00;0.00;;;;;;;5.37;100.00;104782.38;10496616;28;20267;-72
2022/03/18 20:17:53;;;;;;;0.00;0.00;;;;;;;5.20;100.00;104781.81;10473849;28;20016;-72
2022/03/18 20:22:54;;;;;;;0.00;0.00;;;;;;;5.11;100.00;104798.72;10491601;28;20078;-72
2022/03/18 20:27:54;;;;;;;0.00;0.00;;;;;;;5.12;100.00;104784.63;10491434;28;20029;-72
2022/03/18 20:32:54;;;;;;;0.00;0.00;;;;;;;5.13;100.00;104794.28;10491327;28;20107;-72
2022/03/18 20:37:55;;;;;;;0.00;0.00;;;;;;;4.98;100.00;104808.63;10491436;28;20437;-72
2022/03/18 20:42:55;;;;;;;0.00;0.00;;;;;;;4.95;100.00;104794.59;10490869;28;20020;-71
2022/03/18 20:47:56;;;;;;;0.00;0.00;;;;;;;4.92;100.00;104806.09;10491251;28;20285;-69
2022/03/18 20:53:04;;;;;;;0.00;0.00;;;;;;;4.79;100.00;104807.16;10495318;28;20290;-71
2022/03/18 20:58:06;;;;;;;0.00;0.00;;;;;;;4.71;100.00;104811.69;10498464;28;20052;-71
2022/03/18 21:03:07;;;;;;;0.00;0.00;;;;;;;4.56;100.00;104807.50;10499183;28;20265;-71
2022/03/18 21:08:07;;;;;;;0.00;0.00;;;;;;;4.38;100.00;104795.44;10497833;28;20043;-71
2022/03/18 21:13:09;;;;;;;0.00;0.00;;;;;;;4.19;100.00;104815.06;10497781;28;20391;-71
2022/03/18 21:18:09;;;;;;;0.00;0.00;;;;;;;4.02;100.00;104821.44;10498186;28;20479;-71
2022/03/18 21:23:09;;;;;;;0.00;0.00;;;;;;;3.97;100.00;104815.34;10497494;28;20017;-71
2022/03/18 21:33:28;;;;;;;0.00;0.00;;;;;;;3.87;100.00;104821.63;10496904;28;20703;-70
2022/03/18 21:38:29;;;;;;;0.00;0.00;;;;;;;3.58;100.00;104819.31;10502779;28;20052;-71
2022/03/18 21:43:29;;;;;;;0.00;0.00;;;;;;;3.34;100.00;104820.41;10488096;28;20102;-71
2022/03/18 21:48:30;;;;;;;0.00;0.00;;;;;;;3.25;100.00;104815.22;10496302;28;20282;-70
2022/03/18 21:53:31;;;;;;;0.00;0.00;;;;;;;3.21;100.00;104816.13;10496288;28;20046;-71
2022/03/18 21:58:31;;;;;;;0.00;0.00;;;;;;;3.09;100.00;104817.13;10478513;28;20021;-72
2022/03/18 22:03:32;;;;;;;0.00;0.00;;;;;;;3.01;100.00;104817.19;10495115;28;20471;-72
2022/03/18 22:08:32;;;;;;;0.00;0.00;;;;;;;3.05;100.00;104820.66;10495390;28;20378;-71
2022/03/18 22:13:33;;;;;;;0.00;0.00;;;;;;;2.91;100.00;104824.28;10482967;28;20060;-71
2022/03/18 22:18:33;;;;;;;0.00;0.00;;;;;;;2.71;100.00;104820.91;10467172;28;20059;-70
2022/03/18 22:23:35;;;;;;;0.08;0.08;;;;;;;2.54;100.00;104825.41;10474659;28;20275;-71
2022/03/18 22:28:35;;;;;;;0.10;0.10;;;;;;;2.37;100.00;104815.84;10475925;28;20017;-71
2022/03/18 22:33:36;;;;;;;0.00;0.00;;;;;;;2.18;100.00;104822.97;10468203;28;20032;-71
2022/03/18 22:38:36;;;;;;;0.00;0.00;;;;;;;2.06;100.00;104820.34;10473296;28;20111;-71
2022/03/18 22:43:36;;;;;;;0.00;0.00;;;;;;;2.00;100.00;104825.63;10468244;28;20034;-71
2022/03/18 22:48:39;;;;;;;0.00;0.00;;;;;;;1.83;100.00;104824.81;10464599;28;20029;-71
2022/03/18 22:53:41;;;;;;;0.00;0.00;;;;;;;1.66;100.00;104822.22;10483829;28;20471;-70
2022/03/18 22:58:41;;;;;;;0.03;0.03;;;;;;;1.51;100.00;104831.00;10466196;28;20409;-71
2022/03/18 23:03:42;;;;;;;0.05;0.05;;;;;;;1.38;100.00;104834.56;10486282;28;20017;-70
2022/03/18 23:08:42;;;;;;;0.10;0.10;;;;;;;1.24;100.00;104838.03;10477012;28;20025;-70
2022/03/18 23:13:42;;;;;;;0.00;0.00;;;;;;;1.11;100.00;104831.94;10466645;28;20365;-71
2022/03/18 23:18:43;;;;;;;0.00;0.00;;;;;;;1.02;100.00;104836.28;10470062;28;20456;-70
2022/03/18 23:23:43;;;;;;;0.03;0.03;;;;;;;0.91;100.00;104833.66;10487648;28;20275;-71
2022/03/18 23:28:43;;;;;;;0.00;0.00;;;;;;;0.83;100.00;104840.66;10475534;28;20278;-72
2022/03/18 23:33:44;;;;;;;0.00;0.00;;;;;;;0.74;100.00;104838.00;10460592;28;20757;-71
2022/03/18 23:38:45;;;;;;;0.05;0.05;;;;;;;0.84;100.00;104827.53;10453949;28;20271;-71
2022/03/18 23:43:47;;;;;;;0.00;0.00;;;;;;;1.05;100.00;104825.81;10481409;28;20078;-71